sensor_id;sensor_type;location;lat;lon;timestamp;P1;durP1;ratioP1;P2;durP2;ratioP2
33154;SDS011;19511;42.682;23.332;2022-09-12T00:03:08;3.72;;;2.42;;
33154;SDS011;19511;42.682;23.332;2022-09-12T00:05:39;4.13;;;2.88;;
33154;SDS011;19511;42.682;23.332;2022-09-12T00:08:08;4.13;;;2.65;;
33154;SDS011;19511;42.682;23.332;2022-09-12T00:10:41;3.95;;;2.67;;
33154;SDS011;19511;42.682;23.332;2022-09-12T00:13:08;5.15;;;2.88;;
33154;SDS011;19511;42.682;23.332;2022-09-12T00:15:38;6.97;;;3.63;;
33154;SDS011;19511;42.682;23.332;2022-09-12T00:18:05;5.43;;;3.33;;
33154;SDS011;19511;42.682;23.332;2022-09-12T00:20:31;5.50;;;3.00;;
33154;SDS011;19511;42.682;23.332;2022-09-12T00:22:56;4.35;;;3.03;;
33154;SDS011;19511;42.682;23.332;2022-09-12T00:25:22;5.63;;;3.65;;
33154;SDS011;19511;42.682;23.332;2022-09-12T00:27:47;4.15;;;3.03;;
33154;SDS011;19511;42.682;23.332;2022-09-12T00:30:12;5.07;;;2.88;;
33154;SDS011;19511;42.682;23.332;2022-09-12T00:32:38;3.67;;;2.72;;
33154;SDS011;19511;42.682;23.332;2022-09-12T00:35:03;4.70;;;2.88;;
33154;SDS011;19511;42.682;23.332;2022-09-12T00:37:29;5.82;;;2.83;;
33154;SDS011;19511;42.682;23.332;2022-09-12T00:39:55;4.38;;;3.13;;
33154;SDS011;19511;42.682;23.332;2022-09-12T00:42:20;5.20;;;2.63;;
33154;SDS011;19511;42.682;23.332;2022-09-12T00:44:48;2.78;;;2.35;;
33154;SDS011;19511;42.682;23.332;2022-09-12T00:47:17;4.38;;;2.55;;
33154;SDS011;19511;42.682;23.332;2022-09-12T00:49:51;3.63;;;2.33;;
33154;SDS011;19511;42.682;23.332;2022-09-12T00:52:27;3.92;;;2.75;;
33154;SDS011;19511;42.682;23.332;2022-09-12T00:55:04;4.45;;;2.58;;
33154;SDS011;19511;42.682;23.332;2022-09-12T00:57:44;4.72;;;3.15;;
33154;SDS011;19511;42.682;23.332;2022-09-12T01:00:17;2.88;;;1.95;;
33154;SDS011;19511;42.682;23.332;2022-09-12T01:02:45;4.50;;;2.63;;
33154;SDS011;19511;42.682;23.332;2022-09-12T01:05:15;3.50;;;2.17;;
33154;SDS011;19511;42.682;23.332;2022-09-12T01:07:41;3.88;;;2.20;;
33154;SDS011;19511;42.682;23.332;2022-09-12T01:10:08;3.45;;;2.58;;
33154;SDS011;19511;42.682;23.332;2022-09-12T01:12:36;3.45;;;2.40;;
33154;SDS011;19511;42.682;23.332;2022-09-12T01:15:04;3.80;;;2.28;;
33154;SDS011;19511;42.682;23.332;2022-09-12T01:17:32;3.85;;;2.42;;
33154;SDS011;19511;42.682;23.332;2022-09-12T01:23:16;4.20;;;2.78;;
33154;SDS011;19511;42.682;23.332;2022-09-12T01:39:13;5.90;;;2.47;;
33154;SDS011;19511;42.682;23.332;2022-09-12T01:41:48;5.75;;;2.67;;
33154;SDS011;19511;42.682;23.332;2022-09-12T01:50:04;3.35;;;2.22;;
33154;SDS011;19511;42.682;23.332;2022-09-12T01:52:41;2.72;;;2.05;;
33154;SDS011;19511;42.682;23.332;2022-09-12T01:55:09;2.92;;;2.13;;
33154;SDS011;19511;42.682;23.332;2022-09-12T01:57:41;2.17;;;1.67;;
33154;SDS011;19511;42.682;23.332;2022-09-12T02:00:13;3.65;;;2.10;;
33154;SDS011;19511;42.682;23.332;2022-09-12T02:05:39;2.95;;;1.80;;
33154;SDS011;19511;42.682;23.332;2022-09-12T02:08:27;2.45;;;1.90;;
33154;SDS011;19511;42.682;23.332;2022-09-12T02:11:02;2.55;;;1.67;;
33154;SDS011;19511;42.682;23.332;2022-09-12T02:16:05;2.28;;;1.52;;
33154;SDS011;19511;42.682;23.332;2022-09-12T02:18:56;2.88;;;1.98;;
33154;SDS011;19511;42.682;23.332;2022-09-12T02:21:27;3.50;;;1.87;;
33154;SDS011;19511;42.682;23.332;2022-09-12T02:23:57;2.80;;;2.05;;
33154;SDS011;19511;42.682;23.332;2022-09-12T02:26:37;4.05;;;2.22;;
33154;SDS011;19511;42.682;23.332;2022-09-12T02:29:13;4.20;;;2.60;;
33154;SDS011;19511;42.682;23.332;2022-09-12T02:31:44;2.58;;;1.63;;
33154;SDS011;19511;42.682;23.332;2022-09-12T02:37:13;2.47;;;1.98;;
33154;SDS011;19511;42.682;23.332;2022-09-12T02:39:49;2.78;;;1.73;;
33154;SDS011;19511;42.682;23.332;2022-09-12T02:42:14;3.03;;;1.92;;
33154;SDS011;19511;42.682;23.332;2022-09-12T02:44:40;1.88;;;1.63;;
33154;SDS011;19511;42.682;23.332;2022-09-12T02:47:08;3.35;;;2.20;;
33154;SDS011;19511;42.682;23.332;2022-09-12T02:49:39;2.00;;;1.75;;
33154;SDS011;19511;42.682;23.332;2022-09-12T02:52:04;2.28;;;1.77;;
33154;SDS011;19511;42.682;23.332;2022-09-12T02:54:30;2.65;;;1.65;;
33154;SDS011;19511;42.682;23.332;2022-09-12T02:56:56;5.45;;;2.03;;
33154;SDS011;19511;42.682;23.332;2022-09-12T02:59:22;2.63;;;1.88;;
33154;SDS011;19511;42.682;23.332;2022-09-12T03:15:35;4.50;;;1.98;;
33154;SDS011;19511;42.682;23.332;2022-09-12T03:18:22;2.63;;;1.80;;
33154;SDS011;19511;42.682;23.332;2022-09-12T03:21:01;2.38;;;1.80;;
33154;SDS011;19511;42.682;23.332;2022-09-12T03:24:16;6.85;;;1.92;;
33154;SDS011;19511;42.682;23.332;2022-09-12T03:26:47;4.20;;;2.17;;
33154;SDS011;19511;42.682;23.332;2022-09-12T03:29:18;4.60;;;2.13;;
33154;SDS011;19511;42.682;23.332;2022-09-12T03:31:55;5.05;;;2.60;;
33154;SDS011;19511;42.682;23.332;2022-09-12T03:34:23;2.95;;;2.25;;
33154;SDS011;19511;42.682;23.332;2022-09-12T03:36:50;3.08;;;2.03;;
33154;SDS011;19511;42.682;23.332;2022-09-12T03:39:16;3.35;;;2.10;;
33154;SDS011;19511;42.682;23.332;2022-09-12T03:41:42;1.70;;;1.55;;
33154;SDS011;19511;42.682;23.332;2022-09-12T03:44:07;5.05;;;2.10;;
33154;SDS011;19511;42.682;23.332;2022-09-12T03:46:33;4.03;;;2.63;;
33154;SDS011;19511;42.682;23.332;2022-09-12T03:48:59;3.60;;;2.08;;
33154;SDS011;19511;42.682;23.332;2022-09-12T03:51:24;3.53;;;2.17;;
33154;SDS011;19511;42.682;23.332;2022-09-12T03:53:50;5.03;;;2.58;;
33154;SDS011;19511;42.682;23.332;2022-09-12T03:56:15;3.30;;;2.03;;
33154;SDS011;19511;42.682;23.332;2022-09-12T03:58:42;3.40;;;1.92;;
33154;SDS011;19511;42.682;23.332;2022-09-12T04:01:15;2.45;;;1.58;;
33154;SDS011;19511;42.682;23.332;2022-09-12T04:03:43;3.67;;;2.00;;
33154;SDS011;19511;42.682;23.332;2022-09-12T04:06:11;5.05;;;2.65;;
33154;SDS011;19511;42.682;23.332;2022-09-12T04:08:39;3.65;;;2.30;;
33154;SDS011;19511;42.682;23.332;2022-09-12T04:11:06;4.50;;;2.28;;
33154;SDS011;19511;42.682;23.332;2022-09-12T04:13:36;2.58;;;1.95;;
33154;SDS011;19511;42.682;23.332;2022-09-12T04:16:02;2.08;;;1.52;;
33154;SDS011;19511;42.682;23.332;2022-09-12T04:18:29;3.10;;;2.33;;
33154;SDS011;19511;42.682;23.332;2022-09-12T04:20:55;3.83;;;2.40;;
33154;SDS011;19511;42.682;23.332;2022-09-12T04:23:20;4.05;;;2.10;;
33154;SDS011;19511;42.682;23.332;2022-09-12T04:25:53;3.47;;;2.05;;
33154;SDS011;19511;42.682;23.332;2022-09-12T04:28:20;2.83;;;2.08;;
33154;SDS011;19511;42.682;23.332;2022-09-12T04:30:46;2.78;;;1.90;;
33154;SDS011;19511;42.682;23.332;2022-09-12T04:33:11;3.80;;;2.47;;
33154;SDS011;19511;42.682;23.332;2022-09-12T04:35:36;2.50;;;2.17;;
33154;SDS011;19511;42.682;23.332;2022-09-12T04:38:02;5.53;;;2.72;;
33154;SDS011;19511;42.682;23.332;2022-09-12T04:40:28;2.67;;;1.90;;
33154;SDS011;19511;42.682;23.332;2022-09-12T04:42:54;6.43;;;3.00;;
33154;SDS011;19511;42.682;23.332;2022-09-12T04:45:20;6.97;;;2.60;;
33154;SDS011;19511;42.682;23.332;2022-09-12T04:47:45;3.33;;;2.47;;
33154;SDS011;19511;42.682;23.332;2022-09-12T04:50:11;2.90;;;2.05;;
33154;SDS011;19511;42.682;23.332;2022-09-12T04:52:36;3.47;;;2.35;;
33154;SDS011;19511;42.682;23.332;2022-09-12T04:55:02;4.45;;;2.58;;
33154;SDS011;19511;42.682;23.332;2022-09-12T04:57:28;3.95;;;2.13;;
33154;SDS011;19511;42.682;23.332;2022-09-12T04:59:53;3.40;;;2.05;;
33154;SDS011;19511;42.682;23.332;2022-09-12T05:02:18;6.38;;;2.17;;
33154;SDS011;19511;42.682;23.332;2022-09-12T05:04:45;3.20;;;2.05;;
33154;SDS011;19511;42.682;23.332;2022-09-12T05:07:11;5.05;;;2.42;;
33154;SDS011;19511;42.682;23.332;2022-09-12T05:09:36;3.45;;;2.53;;
33154;SDS011;19511;42.682;23.332;2022-09-12T05:12:01;3.60;;;2.10;;
33154;SDS011;19511;42.682;23.332;2022-09-12T05:14:28;3.30;;;2.10;;
33154;SDS011;19511;42.682;23.332;2022-09-12T05:16:53;3.47;;;2.40;;
33154;SDS011;19511;42.682;23.332;2022-09-12T05:19:23;3.88;;;2.25;;
33154;SDS011;19511;42.682;23.332;2022-09-12T05:21:49;4.18;;;2.03;;
33154;SDS011;19511;42.682;23.332;2022-09-12T05:24:14;4.88;;;2.50;;
33154;SDS011;19511;42.682;23.332;2022-09-12T05:26:40;4.57;;;2.45;;
33154;SDS011;19511;42.682;23.332;2022-09-12T05:29:05;3.47;;;2.35;;
33154;SDS011;19511;42.682;23.332;2022-09-12T05:31:31;39.53;;;16.73;;
33154;SDS011;19511;42.682;23.332;2022-09-12T05:33:57;7.38;;;2.30;;
33154;SDS011;19511;42.682;23.332;2022-09-12T05:36:23;3.88;;;2.58;;
33154;SDS011;19511;42.682;23.332;2022-09-12T05:38:53;2.85;;;2.08;;
33154;SDS011;19511;42.682;23.332;2022-09-12T05:41:19;4.72;;;2.22;;
33154;SDS011;19511;42.682;23.332;2022-09-12T05:43:59;3.33;;;2.30;;
33154;SDS011;19511;42.682;23.332;2022-09-12T05:46:27;5.63;;;2.65;;
33154;SDS011;19511;42.682;23.332;2022-09-12T05:49:00;2.47;;;1.88;;
33154;SDS011;19511;42.682;23.332;2022-09-12T05:51:28;3.92;;;2.30;;
33154;SDS011;19511;42.682;23.332;2022-09-12T05:53:58;3.60;;;2.22;;
33154;SDS011;19511;42.682;23.332;2022-09-12T05:56:25;205.60;;;76.85;;
33154;SDS011;19511;42.682;23.332;2022-09-12T05:59:06;4.18;;;2.30;;
33154;SDS011;19511;42.682;23.332;2022-09-12T06:01:36;3.58;;;2.22;;
33154;SDS011;19511;42.682;23.332;2022-09-12T06:04:09;5.45;;;2.22;;
33154;SDS011;19511;42.682;23.332;2022-09-12T06:06:39;5.00;;;3.20;;
33154;SDS011;19511;42.682;23.332;2022-09-12T06:09:07;3.13;;;1.92;;
33154;SDS011;19511;42.682;23.332;2022-09-12T06:11:33;6.15;;;3.42;;
33154;SDS011;19511;42.682;23.332;2022-09-12T06:14:01;90.97;;;24.13;;
33154;SDS011;19511;42.682;23.332;2022-09-12T06:16:28;3.72;;;2.83;;
33154;SDS011;19511;42.682;23.332;2022-09-12T06:18:59;5.07;;;4.35;;
33154;SDS011;19511;42.682;23.332;2022-09-12T06:21:26;2.70;;;2.35;;
33154;SDS011;19511;42.682;23.332;2022-09-12T06:23:55;3.63;;;2.15;;
33154;SDS011;19511;42.682;23.332;2022-09-12T06:26:23;822.15;;;129.93;;
33154;SDS011;19511;42.682;23.332;2022-09-12T06:28:49;4.93;;;3.00;;
33154;SDS011;19511;42.682;23.332;2022-09-12T06:31:17;4.53;;;2.17;;
33154;SDS011;19511;42.682;23.332;2022-09-12T06:33:45;3.78;;;2.45;;
33154;SDS011;19511;42.682;23.332;2022-09-12T06:36:16;4.40;;;3.38;;
33154;SDS011;19511;42.682;23.332;2022-09-12T06:38:45;4.93;;;3.15;;
33154;SDS011;19511;42.682;23.332;2022-09-12T06:41:11;5.38;;;3.55;;
33154;SDS011;19511;42.682;23.332;2022-09-12T06:43:38;5.95;;;2.95;;
33154;SDS011;19511;42.682;23.332;2022-09-12T06:46:04;4.93;;;3.35;;
33154;SDS011;19511;42.682;23.332;2022-09-12T06:48:30;4.80;;;3.67;;
33154;SDS011;19511;42.682;23.332;2022-09-12T06:53:26;30.35;;;27.55;;
33154;SDS011;19511;42.682;23.332;2022-09-12T06:55:56;86.57;;;15.82;;
33154;SDS011;19511;42.682;23.332;2022-09-12T06:58:23;4.35;;;2.90;;
33154;SDS011;19511;42.682;23.332;2022-09-12T07:00:49;5.38;;;4.75;;
33154;SDS011;19511;42.682;23.332;2022-09-12T07:03:15;9.20;;;6.82;;
33154;SDS011;19511;42.682;23.332;2022-09-12T07:05:40;4.82;;;4.05;;
33154;SDS011;19511;42.682;23.332;2022-09-12T07:08:06;6.03;;;4.75;;
33154;SDS011;19511;42.682;23.332;2022-09-12T07:10:32;8.65;;;4.35;;
33154;SDS011;19511;42.682;23.332;2022-09-12T07:16:19;11.98;;;6.25;;
33154;SDS011;19511;42.682;23.332;2022-09-12T07:18:48;3.85;;;2.67;;
33154;SDS011;19511;42.682;23.332;2022-09-12T07:21:15;14.65;;;12.13;;
33154;SDS011;19511;42.682;23.332;2022-09-12T07:23:41;426.65;;;135.25;;
33154;SDS011;19511;42.682;23.332;2022-09-12T07:26:08;18.88;;;10.18;;
33154;SDS011;19511;42.682;23.332;2022-09-12T07:28:37;26.73;;;7.80;;
33154;SDS011;19511;42.682;23.332;2022-09-12T07:31:13;354.85;;;53.50;;
33154;SDS011;19511;42.682;23.332;2022-09-12T07:33:40;397.95;;;143.65;;
33154;SDS011;19511;42.682;23.332;2022-09-12T07:36:16;8.80;;;5.28;;
33154;SDS011;19511;42.682;23.332;2022-09-12T07:38:44;4.90;;;3.47;;
33154;SDS011;19511;42.682;23.332;2022-09-12T07:41:11;7.93;;;5.80;;
33154;SDS011;19511;42.682;23.332;2022-09-12T07:43:42;8.63;;;6.03;;
33154;SDS011;19511;42.682;23.332;2022-09-12T07:46:07;9.70;;;6.55;;
33154;SDS011;19511;42.682;23.332;2022-09-12T07:48:33;8.63;;;4.78;;
33154;SDS011;19511;42.682;23.332;2022-09-12T07:50:59;116.50;;;48.63;;
33154;SDS011;19511;42.682;23.332;2022-09-12T07:53:34;4.10;;;3.33;;
33154;SDS011;19511;42.682;23.332;2022-09-12T07:56:01;6.38;;;5.47;;
33154;SDS011;19511;42.682;23.332;2022-09-12T07:58:29;9.73;;;8.90;;
33154;SDS011;19511;42.682;23.332;2022-09-12T08:01:04;50.42;;;45.08;;
33154;SDS011;19511;42.682;23.332;2022-09-12T08:03:40;622.83;;;227.82;;
33154;SDS011;19511;42.682;23.332;2022-09-12T08:08:36;13.95;;;10.60;;
33154;SDS011;19511;42.682;23.332;2022-09-12T08:11:04;24.67;;;18.90;;
33154;SDS011;19511;42.682;23.332;2022-09-12T08:13:32;310.20;;;84.72;;
33154;SDS011;19511;42.682;23.332;2022-09-12T08:15:59;472.20;;;178.95;;
33154;SDS011;19511;42.682;23.332;2022-09-12T08:18:26;20.30;;;18.30;;
33154;SDS011;19511;42.682;23.332;2022-09-12T08:20:59;589.25;;;196.18;;
33154;SDS011;19511;42.682;23.332;2022-09-12T08:23:26;22.52;;;16.60;;
33154;SDS011;19511;42.682;23.332;2022-09-12T08:25:56;418.35;;;183.98;;
33154;SDS011;19511;42.682;23.332;2022-09-12T08:28:23;305.55;;;161.65;;
33154;SDS011;19511;42.682;23.332;2022-09-12T08:30:49;29.65;;;23.75;;
33154;SDS011;19511;42.682;23.332;2022-09-12T08:33:15;195.00;;;157.57;;
33154;SDS011;19511;42.682;23.332;2022-09-12T08:35:40;63.03;;;56.63;;
33154;SDS011;19511;42.682;23.332;2022-09-12T08:38:06;26.92;;;19.73;;
33154;SDS011;19511;42.682;23.332;2022-09-12T08:40:32;14.25;;;12.95;;
33154;SDS011;19511;42.682;23.332;2022-09-12T08:46:07;914.85;;;281.67;;
33154;SDS011;19511;42.682;23.332;2022-09-12T08:48:39;46.22;;;41.45;;
33154;SDS011;19511;42.682;23.332;2022-09-12T08:51:07;30.40;;;16.85;;
33154;SDS011;19511;42.682;23.332;2022-09-12T08:53:36;12.13;;;9.88;;
33154;SDS011;19511;42.682;23.332;2022-09-12T08:56:02;136.80;;;116.85;;
33154;SDS011;19511;42.682;23.332;2022-09-12T08:58:30;36.40;;;32.75;;
33154;SDS011;19511;42.682;23.332;2022-09-12T09:18:01;59.38;;;54.47;;
33154;SDS011;19511;42.682;23.332;2022-09-12T09:23:11;115.35;;;107.13;;
33154;SDS011;19511;42.682;23.332;2022-09-12T09:30:55;1999.90;;;551.53;;
33154;SDS011;19511;42.682;23.332;2022-09-12T09:33:22;123.97;;;114.50;;
33154;SDS011;19511;42.682;23.332;2022-09-12T09:36:33;146.10;;;135.77;;
33154;SDS011;19511;42.682;23.332;2022-09-12T09:41:52;133.68;;;124.38;;
33154;SDS011;19511;42.682;23.332;2022-09-12T09:44:21;1024.53;;;526.63;;
33154;SDS011;19511;42.682;23.332;2022-09-12T09:46:48;654.50;;;305.08;;
33154;SDS011;19511;42.682;23.332;2022-09-12T09:49:19;342.88;;;312.02;;
33154;SDS011;19511;42.682;23.332;2022-09-12T09:51:45;469.80;;;407.13;;
33154;SDS011;19511;42.682;23.332;2022-09-12T09:54:16;396.95;;;247.40;;
33154;SDS011;19511;42.682;23.332;2022-09-12T09:56:42;372.50;;;209.90;;
33154;SDS011;19511;42.682;23.332;2022-09-12T09:59:12;99.95;;;92.07;;
33154;SDS011;19511;42.682;23.332;2022-09-12T10:01:45;144.85;;;133.32;;
33154;SDS011;19511;42.682;23.332;2022-09-12T10:04:20;609.92;;;459.23;;
33154;SDS011;19511;42.682;23.332;2022-09-12T10:06:51;246.15;;;223.73;;
33154;SDS011;19511;42.682;23.332;2022-09-12T10:09:23;133.48;;;124.10;;
33154;SDS011;19511;42.682;23.332;2022-09-12T10:11:54;165.65;;;150.35;;
33154;SDS011;19511;42.682;23.332;2022-09-12T10:16:59;325.35;;;298.95;;
33154;SDS011;19511;42.682;23.332;2022-09-12T10:19:35;573.47;;;522.33;;
33154;SDS011;19511;42.682;23.332;2022-09-12T10:22:03;601.70;;;549.17;;
33154;SDS011;19511;42.682;23.332;2022-09-12T10:29:40;853.53;;;570.70;;
33154;SDS011;19511;42.682;23.332;2022-09-12T10:32:11;381.73;;;353.38;;
33154;SDS011;19511;42.682;23.332;2022-09-12T10:34:45;369.15;;;335.40;;
33154;SDS011;19511;42.682;23.332;2022-09-12T10:37:25;750.30;;;474.92;;
33154;SDS011;19511;42.682;23.332;2022-09-12T10:39:57;1602.05;;;713.15;;
33154;SDS011;19511;42.682;23.332;2022-09-12T10:47:48;579.92;;;529.33;;
33154;SDS011;19511;42.682;23.332;2022-09-12T10:50:57;888.15;;;803.55;;
33154;SDS011;19511;42.682;23.332;2022-09-12T10:53:27;1951.27;;;899.63;;
33154;SDS011;19511;42.682;23.332;2022-09-12T10:58:40;1430.35;;;884.67;;
33154;SDS011;19511;42.682;23.332;2022-09-12T11:04:14;952.47;;;851.78;;
33154;SDS011;19511;42.682;23.332;2022-09-12T11:15:42;895.90;;;810.92;;
33154;SDS011;19511;42.682;23.332;2022-09-12T11:23:42;948.10;;;834.65;;
33154;SDS011;19511;42.682;23.332;2022-09-12T11:40:06;527.00;;;478.33;;
33154;SDS011;19511;42.682;23.332;2022-09-12T11:42:48;1057.88;;;691.80;;
33154;SDS011;19511;42.682;23.332;2022-09-12T11:46:04;661.65;;;601.78;;
33154;SDS011;19511;42.682;23.332;2022-09-12T11:48:13;1182.47;;;705.55;;
33154;SDS011;19511;42.682;23.332;2022-09-12T11:50:56;743.58;;;675.25;;
33154;SDS011;19511;42.682;23.332;2022-09-12T11:53:24;1614.95;;;847.13;;
33154;SDS011;19511;42.682;23.332;2022-09-12T11:55:58;1021.20;;;823.13;;
33154;SDS011;19511;42.682;23.332;2022-09-12T11:58:30;656.05;;;597.65;;
33154;SDS011;19511;42.682;23.332;2022-09-12T12:00:57;732.40;;;666.65;;
33154;SDS011;19511;42.682;23.332;2022-09-12T12:03:40;825.97;;;747.13;;
33154;SDS011;19511;42.682;23.332;2022-09-12T12:08:44;929.53;;;713.35;;
33154;SDS011;19511;42.682;23.332;2022-09-12T12:11:12;946.00;;;824.28;;
33154;SDS011;19511;42.682;23.332;2022-09-12T12:19:00;538.00;;;493.63;;
33154;SDS011;19511;42.682;23.332;2022-09-12T12:21:37;934.15;;;841.65;;
33154;SDS011;19511;42.682;23.332;2022-09-12T12:26:41;1999.90;;;716.70;;
33154;SDS011;19511;42.682;23.332;2022-09-12T12:29:35;1999.90;;;976.30;;
33154;SDS011;19511;42.682;23.332;2022-09-12T12:34:31;1071.88;;;909.80;;
33154;SDS011;19511;42.682;23.332;2022-09-12T12:44:57;1157.65;;;807.97;;
33154;SDS011;19511;42.682;23.332;2022-09-12T12:50:19;1989.03;;;682.60;;
33154;SDS011;19511;42.682;23.332;2022-09-12T12:55:31;852.67;;;764.50;;
33154;SDS011;19511;42.682;23.332;2022-09-12T12:57:59;509.20;;;466.67;;
33154;SDS011;19511;42.682;23.332;2022-09-12T13:00:30;1312.03;;;523.53;;
33154;SDS011;19511;42.682;23.332;2022-09-12T13:05:29;293.15;;;269.63;;
33154;SDS011;19511;42.682;23.332;2022-09-12T13:10:46;307.75;;;282.65;;
33154;SDS011;19511;42.682;23.332;2022-09-12T13:13:24;430.90;;;357.58;;
33154;SDS011;19511;42.682;23.332;2022-09-12T13:15:55;406.63;;;374.23;;
33154;SDS011;19511;42.682;23.332;2022-09-12T13:23:29;524.15;;;476.33;;
33154;SDS011;19511;42.682;23.332;2022-09-12T13:25:57;253.23;;;233.68;;
33154;SDS011;19511;42.682;23.332;2022-09-12T13:28:29;210.80;;;194.43;;
33154;SDS011;19511;42.682;23.332;2022-09-12T13:44:38;932.60;;;832.88;;
33154;SDS011;19511;42.682;23.332;2022-09-12T13:47:34;532.08;;;483.02;;
33154;SDS011;19511;42.682;23.332;2022-09-12T13:50:06;577.78;;;529.15;;
33154;SDS011;19511;42.682;23.332;2022-09-12T13:52:39;1104.93;;;808.90;;
33154;SDS011;19511;42.682;23.332;2022-09-12T13:55:21;465.67;;;427.55;;
33154;SDS011;19511;42.682;23.332;2022-09-12T13:58:03;831.80;;;753.17;;
33154;SDS011;19511;42.682;23.332;2022-09-12T14:00:34;1685.57;;;880.83;;
33154;SDS011;19511;42.682;23.332;2022-09-12T14:03:28;887.13;;;789.60;;
33154;SDS011;19511;42.682;23.332;2022-09-12T14:06:15;922.78;;;828.20;;
33154;SDS011;19511;42.682;23.332;2022-09-12T14:08:47;1999.90;;;999.90;;
33154;SDS011;19511;42.682;23.332;2022-09-12T14:11:28;1232.38;;;871.38;;
33154;SDS011;19511;42.682;23.332;2022-09-12T14:13:55;910.90;;;818.78;;
33154;SDS011;19511;42.682;23.332;2022-09-12T14:16:28;972.30;;;873.05;;
33154;SDS011;19511;42.682;23.332;2022-09-12T14:18:59;1999.90;;;510.00;;
33154;SDS011;19511;42.682;23.332;2022-09-12T14:23:58;1102.63;;;731.17;;
33154;SDS011;19511;42.682;23.332;2022-09-12T14:26:26;471.58;;;432.13;;
33154;SDS011;19511;42.682;23.332;2022-09-12T14:28:57;621.25;;;566.65;;
33154;SDS011;19511;42.682;23.332;2022-09-12T14:31:27;411.83;;;378.45;;
33154;SDS011;19511;42.682;23.332;2022-09-12T14:33:54;884.92;;;721.42;;
33154;SDS011;19511;42.682;23.332;2022-09-12T14:36:25;547.45;;;500.23;;
33154;SDS011;19511;42.682;23.332;2022-09-12T14:38:53;674.58;;;601.28;;
33154;SDS011;19511;42.682;23.332;2022-09-12T14:41:23;1164.18;;;719.85;;
33154;SDS011;19511;42.682;23.332;2022-09-12T14:43:55;551.45;;;502.05;;
33154;SDS011;19511;42.682;23.332;2022-09-12T14:46:27;492.63;;;449.05;;
33154;SDS011;19511;42.682;23.332;2022-09-12T14:48:59;717.38;;;622.05;;
33154;SDS011;19511;42.682;23.332;2022-09-12T14:51:33;694.05;;;593.53;;
33154;SDS011;19511;42.682;23.332;2022-09-12T14:54:01;575.15;;;524.65;;
33154;SDS011;19511;42.682;23.332;2022-09-12T14:56:38;1909.97;;;721.42;;
33154;SDS011;19511;42.682;23.332;2022-09-12T15:04:41;1967.28;;;839.17;;
33154;SDS011;19511;42.682;23.332;2022-09-12T15:07:15;559.85;;;508.42;;
33154;SDS011;19511;42.682;23.332;2022-09-12T15:09:46;914.95;;;620.60;;
33154;SDS011;19511;42.682;23.332;2022-09-12T15:12:13;421.20;;;386.20;;
33154;SDS011;19511;42.682;23.332;2022-09-12T15:14:38;237.85;;;218.60;;
33154;SDS011;19511;42.682;23.332;2022-09-12T15:17:03;227.82;;;209.60;;
33154;SDS011;19511;42.682;23.332;2022-09-12T15:19:29;159.10;;;147.13;;
33154;SDS011;19511;42.682;23.332;2022-09-12T15:21:55;90.20;;;83.88;;
33154;SDS011;19511;42.682;23.332;2022-09-12T15:24:20;240.57;;;221.65;;
33154;SDS011;19511;42.682;23.332;2022-09-12T15:26:46;131.15;;;120.28;;
33154;SDS011;19511;42.682;23.332;2022-09-12T15:29:14;174.88;;;161.48;;
33154;SDS011;19511;42.682;23.332;2022-09-12T15:31:40;128.77;;;117.63;;
33154;SDS011;19511;42.682;23.332;2022-09-12T15:34:05;118.15;;;109.10;;
33154;SDS011;19511;42.682;23.332;2022-09-12T15:36:30;277.23;;;182.27;;
33154;SDS011;19511;42.682;23.332;2022-09-12T15:38:57;95.68;;;87.75;;
33154;SDS011;19511;42.682;23.332;2022-09-12T15:44:02;88.22;;;81.10;;
33154;SDS011;19511;42.682;23.332;2022-09-12T15:46:32;83.72;;;77.10;;
33154;SDS011;19511;42.682;23.332;2022-09-12T15:48:57;117.28;;;108.75;;
33154;SDS011;19511;42.682;23.332;2022-09-12T15:51:23;202.70;;;186.25;;
33154;SDS011;19511;42.682;23.332;2022-09-12T15:53:49;171.45;;;158.13;;
33154;SDS011;19511;42.682;23.332;2022-09-12T15:56:15;115.53;;;105.88;;
33154;SDS011;19511;42.682;23.332;2022-09-12T15:58:42;126.85;;;116.88;;
33154;SDS011;19511;42.682;23.332;2022-09-12T16:01:15;185.35;;;167.52;;
33154;SDS011;19511;42.682;23.332;2022-09-12T16:06:07;263.42;;;235.90;;
33154;SDS011;19511;42.682;23.332;2022-09-12T16:08:33;108.28;;;99.55;;
33154;SDS011;19511;42.682;23.332;2022-09-12T16:11:07;127.68;;;116.82;;
33154;SDS011;19511;42.682;23.332;2022-09-12T16:13:47;76.10;;;69.80;;
33154;SDS011;19511;42.682;23.332;2022-09-12T16:16:13;67.05;;;59.13;;
33154;SDS011;19511;42.682;23.332;2022-09-12T16:18:39;85.53;;;78.07;;
33154;SDS011;19511;42.682;23.332;2022-09-12T16:21:05;79.32;;;72.68;;
33154;SDS011;19511;42.682;23.332;2022-09-12T16:23:30;58.80;;;53.63;;
33154;SDS011;19511;42.682;23.332;2022-09-12T16:28:29;69.93;;;63.15;;
33154;SDS011;19511;42.682;23.332;2022-09-12T16:30:57;90.82;;;83.07;;
33154;SDS011;19511;42.682;23.332;2022-09-12T16:33:24;82.38;;;74.53;;
33154;SDS011;19511;42.682;23.332;2022-09-12T16:35:50;96.38;;;88.20;;
33154;SDS011;19511;42.682;23.332;2022-09-12T16:38:19;81.30;;;74.03;;
33154;SDS011;19511;42.682;23.332;2022-09-12T16:40:45;74.47;;;68.60;;
33154;SDS011;19511;42.682;23.332;2022-09-12T16:43:11;52.00;;;47.28;;
33154;SDS011;19511;42.682;23.332;2022-09-12T16:45:36;82.00;;;60.03;;
33154;SDS011;19511;42.682;23.332;2022-09-12T16:48:02;75.30;;;68.50;;
33154;SDS011;19511;42.682;23.332;2022-09-12T16:50:27;71.25;;;65.20;;
33154;SDS011;19511;42.682;23.332;2022-09-12T16:52:53;63.28;;;57.78;;
33154;SDS011;19511;42.682;23.332;2022-09-12T16:55:18;78.18;;;71.03;;
33154;SDS011;19511;42.682;23.332;2022-09-12T16:57:44;54.85;;;49.90;;
33154;SDS011;19511;42.682;23.332;2022-09-12T17:00:11;53.65;;;49.45;;
33154;SDS011;19511;42.682;23.332;2022-09-12T17:02:38;49.47;;;41.42;;
33154;SDS011;19511;42.682;23.332;2022-09-12T17:05:03;74.47;;;68.75;;
33154;SDS011;19511;42.682;23.332;2022-09-12T17:07:29;57.05;;;50.85;;
33154;SDS011;19511;42.682;23.332;2022-09-12T17:09:54;48.60;;;42.80;;
33154;SDS011;19511;42.682;23.332;2022-09-12T17:12:20;64.20;;;58.75;;
33154;SDS011;19511;42.682;23.332;2022-09-12T17:14:47;49.60;;;44.70;;
33154;SDS011;19511;42.682;23.332;2022-09-12T17:17:13;56.00;;;47.72;;
33154;SDS011;19511;42.682;23.332;2022-09-12T17:19:38;46.55;;;42.63;;
33154;SDS011;19511;42.682;23.332;2022-09-12T17:22:04;46.22;;;42.47;;
33154;SDS011;19511;42.682;23.332;2022-09-12T17:24:29;47.97;;;42.83;;
33154;SDS011;19511;42.682;23.332;2022-09-12T17:26:55;74.88;;;68.88;;
33154;SDS011;19511;42.682;23.332;2022-09-12T17:29:21;76.22;;;68.93;;
33154;SDS011;19511;42.682;23.332;2022-09-12T17:31:46;77.30;;;69.03;;
33154;SDS011;19511;42.682;23.332;2022-09-12T17:34:12;64.03;;;58.95;;
33154;SDS011;19511;42.682;23.332;2022-09-12T17:36:40;64.72;;;59.50;;
33154;SDS011;19511;42.682;23.332;2022-09-12T17:39:08;80.78;;;73.65;;
33154;SDS011;19511;42.682;23.332;2022-09-12T17:41:34;83.40;;;76.85;;
33154;SDS011;19511;42.682;23.332;2022-09-12T17:44:00;89.15;;;81.15;;